Time;durP1;ratioP1;P1;durP2;ratioP2;P2;SDS_P1;SDS_P2;PMS_P1;PMS_P2;Temp;Humidity;BMP_temperature;BMP_pressure;BME280_temperature;BME280_humidity;BME280_pressure;Samples;Min_cycle;Max_cycle;Signal;HPM_P1;HPM_P2
2023/03/19 00:01:45;;;;;;;88.47;39.77;;;;;;;;;;4420566;32;318136;-91
2023/03/19 00:04:13;;;;;;;83.67;39.43;;;;;;;;;;4422710;32;317838;-91
2023/03/19 00:06:41;;;;;;;77.23;38.27;;;;;;;;;;4407208;32;417520;-91
2023/03/19 00:09:08;;;;;;;79.07;39.10;;;;;;;;;;4419610;32;317511;-91
2023/03/19 00:11:34;;;;;;;102.10;46.00;;;;;;;;;;4409492;32;318348;-91
2023/03/19 00:14:01;;;;;;;102.67;47.77;;;;;;;;;;4420237;32;318482;-91
2023/03/19 00:16:28;;;;;;;104.53;53.43;;;;;;;;;;4410471;32;319237;-90
2023/03/19 00:18:56;;;;;;;109.60;56.03;;;;;;;;;;4420234;32;319137;-91
2023/03/19 00:21:23;;;;;;;104.13;51.67;;;;;;;;;;4409597;32;319503;-90
2023/03/19 00:23:51;;;;;;;100.80;49.17;;;;;;;;;;4420602;32;319285;-91
2023/03/19 00:26:18;;;;;;;92.80;46.87;;;;;;;;;;4410684;32;318668;-90
2023/03/19 00:28:45;;;;;;;92.17;49.30;;;;;;;;;;4421246;32;318483;-91
2023/03/19 00:31:14;;;;;;;90.63;47.13;;;;;;;;;;4419657;32;317598;-91
2023/03/19 00:33:41;;;;;;;102.50;52.27;;;;;;;;;;4406473;32;416978;-90
2023/03/19 00:36:09;;;;;;;88.27;48.60;;;;;;;;;;4420666;32;319429;-91
2023/03/19 00:38:36;;;;;;;89.57;42.67;;;;;;;;;;4410568;32;318134;-91
2023/03/19 00:41:06;;;;;;;70.03;38.80;;;;;;;;;;4420295;32;318159;-91
2023/03/19 00:43:33;;;;;;;86.60;40.07;;;;;;;;;;4409096;32;318573;-90
2023/03/19 00:46:00;;;;;;;80.23;41.73;;;;;;;;;;4419411;32;318539;-90
2023/03/19 00:48:27;;;;;;;71.33;40.10;;;;;;;;;;4410336;32;318489;-90
2023/03/19 00:50:54;;;;;;;84.73;40.07;;;;;;;;;;4419391;32;317436;-92
2023/03/19 00:53:21;;;;;;;73.03;37.53;;;;;;;;;;4408735;32;317609;-91
2023/03/19 00:55:48;;;;;;;77.07;38.73;;;;;;;;;;4419013;32;318231;-91
2023/03/19 00:58:16;;;;;;;77.37;37.13;;;;;;;;;;4407235;32;355123;-90
2023/03/19 01:00:43;;;;;;;79.03;38.67;;;;;;;;;;4419190;32;318373;-91
2023/03/19 01:03:09;;;;;;;82.30;40.93;;;;;;;;;;4420899;32;321834;-91
2023/03/19 01:05:36;;;;;;;78.07;39.43;;;;;;;;;;4410209;32;318339;-91
2023/03/19 01:08:03;;;;;;;90.83;43.40;;;;;;;;;;4420216;32;317423;-91
2023/03/19 01:10:33;;;;;;;107.43;55.10;;;;;;;;;;4410393;32;318014;-91
2023/03/19 01:12:59;;;;;;;103.53;54.30;;;;;;;;;;4418938;32;342917;-91
2023/03/19 01:15:28;;;;;;;89.33;43.57;;;;;;;;;;4409943;32;319206;-91
2023/03/19 01:17:54;;;;;;;67.13;35.77;;;;;;;;;;4420229;32;318274;-91
2023/03/19 01:20:22;;;;;;;55.90;30.20;;;;;;;;;;4410041;32;318011;-90
2023/03/19 01:22:49;;;;;;;48.63;27.83;;;;;;;;;;4419874;32;318266;-91
2023/03/19 01:25:17;;;;;;;55.00;26.17;;;;;;;;;;4409730;32;318072;-90
2023/03/19 01:27:43;;;;;;;51.77;29.13;;;;;;;;;;4420160;32;317624;-91
2023/03/19 01:30:11;;;;;;;50.83;28.73;;;;;;;;;;4420703;32;318305;-91
2023/03/19 01:32:39;;;;;;;51.60;27.97;;;;;;;;;;4407164;32;417877;-90
2023/03/19 01:35:08;;;;;;;46.00;27.00;;;;;;;;;;4420425;32;318355;-91
2023/03/19 01:37:38;;;;;;;38.20;22.90;;;;;;;;;;4410516;32;317695;-91
2023/03/19 01:40:07;;;;;;;39.53;22.40;;;;;;;;;;4419910;32;317580;-91
2023/03/19 01:42:35;;;;;;;40.57;23.03;;;;;;;;;;4411820;32;318124;-90
2023/03/19 01:45:03;;;;;;;47.93;22.77;;;;;;;;;;4421518;32;318266;-91
2023/03/19 01:47:32;;;;;;;43.53;23.43;;;;;;;;;;4412308;32;339685;-91
2023/03/19 01:50:00;;;;;;;46.03;25.00;;;;;;;;;;4425772;32;317285;-91
2023/03/19 01:52:31;;;;;;;49.20;26.73;;;;;;;;;;4416288;32;318052;-91
2023/03/19 01:54:59;;;;;;;40.63;23.33;;;;;;;;;;4427212;32;317940;-90
2023/03/19 01:57:26;;;;;;;43.20;23.27;;;;;;;;;;4417563;32;318429;-89
2023/03/19 01:59:56;;;;;;;43.30;23.10;;;;;;;;;;4422845;32;317558;-90
2023/03/19 02:02:28;;;;;;;45.73;24.93;;;;;;;;;;4408467;32;318125;-90
2023/03/19 02:05:00;;;;;;;42.43;22.80;;;;;;;;;;4419301;32;341488;-91
2023/03/19 02:07:30;;;;;;;44.40;22.37;;;;;;;;;;4408508;32;318025;-90
2023/03/19 02:09:58;;;;;;;43.60;23.23;;;;;;;;;;4419528;32;318222;-90
2023/03/19 02:12:26;;;;;;;38.03;21.70;;;;;;;;;;4409689;32;317702;-91
2023/03/19 02:14:53;;;;;;;42.17;23.03;;;;;;;;;;4418518;32;317530;-90
2023/03/19 02:17:20;;;;;;;36.43;22.73;;;;;;;;;;4409404;32;318232;-90
2023/03/19 02:19:52;;;;;;;35.57;20.90;;;;;;;;;;4419918;32;318402;-91
2023/03/19 02:22:22;;;;;;;33.50;19.97;;;;;;;;;;4409609;32;318216;-90
2023/03/19 02:24:56;;;;;;;40.33;20.13;;;;;;;;;;4419509;32;318381;-91
2023/03/19 02:27:24;;;;;;;36.93;20.97;;;;;;;;;;4410325;32;349431;-90
2023/03/19 02:29:51;;;;;;;39.93;24.20;;;;;;;;;;4420988;32;317413;-91
2023/03/19 02:32:17;;;;;;;39.00;22.87;;;;;;;;;;4409820;32;338779;-90
2023/03/19 02:34:45;;;;;;;38.97;23.07;;;;;;;;;;4422533;32;318409;-90
2023/03/19 02:37:16;;;;;;;38.73;22.50;;;;;;;;;;4421289;32;317496;-90
2023/03/19 02:39:50;;;;;;;38.07;22.47;;;;;;;;;;4408789;32;417671;-90
2023/03/19 02:42:19;;;;;;;37.57;23.30;;;;;;;;;;4412471;32;318555;-90
2023/03/19 02:44:48;;;;;;;83.50;38.20;;;;;;;;;;4421917;32;318520;-90
2023/03/19 02:47:15;;;;;;;66.57;33.63;;;;;;;;;;4409422;32;401336;-89
2023/03/19 02:49:41;;;;;;;64.57;32.73;;;;;;;;;;4422041;32;317732;-90
2023/03/19 02:52:09;;;;;;;62.37;31.87;;;;;;;;;;4421514;32;318270;-90
2023/03/19 02:54:36;;;;;;;68.10;31.77;;;;;;;;;;4393699;32;318288;-90
2023/03/19 02:57:03;;;;;;;72.60;33.77;;;;;;;;;;4416238;32;317364;-90
2023/03/19 02:59:30;;;;;;;81.73;36.67;;;;;;;;;;4410559;32;318103;-90
2023/03/19 03:02:00;;;;;;;62.83;34.07;;;;;;;;;;4420739;32;317601;-90
2023/03/19 03:04:28;;;;;;;71.67;38.00;;;;;;;;;;4411719;32;331250;-90
2023/03/19 03:06:55;;;;;;;74.30;37.50;;;;;;;;;;4421584;32;318600;-90
2023/03/19 03:09:22;;;;;;;82.37;40.00;;;;;;;;;;4411309;32;317545;-90
2023/03/19 03:11:49;;;;;;;77.53;38.63;;;;;;;;;;4420610;32;318157;-90
2023/03/19 03:14:18;;;;;;;74.37;36.50;;;;;;;;;;4395674;32;317757;-90
2023/03/19 03:16:45;;;;;;;76.90;40.90;;;;;;;;;;4415473;32;318222;-90
2023/03/19 03:19:13;;;;;;;85.03;41.30;;;;;;;;;;4420601;32;318577;-90
2023/03/19 03:21:40;;;;;;;83.97;44.50;;;;;;;;;;4408265;32;417180;-90
2023/03/19 03:24:08;;;;;;;97.13;46.80;;;;;;;;;;4419925;32;317720;-90
2023/03/19 03:26:37;;;;;;;89.83;43.90;;;;;;;;;;4409847;32;353117;-90
2023/03/19 03:29:04;;;;;;;77.53;42.27;;;;;;;;;;4420115;32;318660;-90
2023/03/19 03:31:31;;;;;;;78.80;38.60;;;;;;;;;;4411795;32;318310;-90
2023/03/19 03:33:58;;;;;;;65.53;35.80;;;;;;;;;;4421658;32;318182;-90
2023/03/19 03:36:27;;;;;;;68.70;35.57;;;;;;;;;;4412381;32;318591;-90
2023/03/19 03:38:54;;;;;;;75.03;40.20;;;;;;;;;;4421891;32;318454;-90
2023/03/19 03:41:21;;;;;;;89.90;45.07;;;;;;;;;;4411513;32;317672;-89
2023/03/19 03:43:48;;;;;;;78.00;41.57;;;;;;;;;;4420479;32;317811;-90
2023/03/19 03:46:14;;;;;;;77.77;42.10;;;;;;;;;;4410432;32;351149;-90
2023/03/19 03:48:41;;;;;;;76.50;39.90;;;;;;;;;;4423350;32;318187;-90
2023/03/19 03:51:11;;;;;;;76.37;39.43;;;;;;;;;;4422081;32;317733;-90
2023/03/19 03:53:40;;;;;;;68.23;34.43;;;;;;;;;;4409006;32;417684;-91
2023/03/19 03:56:07;;;;;;;69.30;35.37;;;;;;;;;;4425019;32;317856;-88
2023/03/19 03:58:34;;;;;;;54.97;30.40;;;;;;;;;;4413121;32;318273;-90
2023/03/19 04:01:01;;;;;;;49.87;22.23;;;;;;;;;;4423388;32;317552;-90
2023/03/19 04:03:27;;;;;;;41.17;23.23;;;;;;;;;;4412081;32;318306;-90
2023/03/19 04:05:54;;;;;;;40.13;23.30;;;;;;;;;;4421650;32;318273;-91
2023/03/19 04:08:22;;;;;;;41.27;24.10;;;;;;;;;;4411996;32;318296;-91
2023/03/19 04:10:50;;;;;;;42.03;22.37;;;;;;;;;;4420389;32;356469;-90
2023/03/19 04:13:17;;;;;;;45.07;22.20;;;;;;;;;;4410051;32;318391;-90
2023/03/19 04:15:45;;;;;;;40.70;23.33;;;;;;;;;;4419698;32;317718;-90
2023/03/19 04:18:12;;;;;;;43.20;23.43;;;;;;;;;;4419357;32;318116;-90
2023/03/19 04:20:40;;;;;;;56.97;30.63;;;;;;;;;;4407463;32;417812;-90
2023/03/19 04:23:07;;;;;;;53.93;29.17;;;;;;;;;;4420213;32;318310;-90
2023/03/19 04:25:33;;;;;;;53.43;29.17;;;;;;;;;;4411750;32;318182;-90
2023/03/19 04:28:02;;;;;;;61.80;33.47;;;;;;;;;;4420666;32;318190;-90
2023/03/19 04:30:29;;;;;;;46.47;29.50;;;;;;;;;;4410032;32;318384;-90
2023/03/19 04:32:56;;;;;;;47.87;28.17;;;;;;;;;;4401240;32;318287;-90
2023/03/19 04:35:23;;;;;;;48.77;25.73;;;;;;;;;;4409215;32;317699;-90
2023/03/19 04:37:50;;;;;;;53.47;27.23;;;;;;;;;;4420355;32;318391;-89
2023/03/19 04:40:18;;;;;;;70.80;38.00;;;;;;;;;;4412814;32;318293;-89
2023/03/19 04:42:44;;;;;;;49.67;28.50;;;;;;;;;;4429388;32;317375;-90
2023/03/19 04:45:13;;;;;;;51.13;29.60;;;;;;;;;;4426653;32;318202;-90
2023/03/19 04:47:40;;;;;;;49.87;29.37;;;;;;;;;;4405822;32;418777;-90
2023/03/19 04:50:08;;;;;;;54.27;30.67;;;;;;;;;;4420546;32;317582;-90
2023/03/19 04:52:37;;;;;;;50.80;28.83;;;;;;;;;;4409034;32;317687;-90
2023/03/19 04:55:04;;;;;;;51.90;27.97;;;;;;;;;;4426458;32;317597;-90
2023/03/19 04:57:31;;;;;;;46.83;28.83;;;;;;;;;;4388271;32;317713;-90
2023/03/19 05:00:00;;;;;;;52.33;27.40;;;;;;;;;;4420474;32;317602;-90
2023/03/19 05:02:28;;;;;;;49.50;27.07;;;;;;;;;;4410085;32;317685;-90
2023/03/19 05:04:55;;;;;;;47.57;28.23;;;;;;;;;;4420711;32;318392;-90
2023/03/19 05:07:21;;;;;;;52.57;29.03;;;;;;;;;;4409290;32;318095;-90
2023/03/19 05:09:48;;;;;;;55.40;31.63;;;;;;;;;;4400822;32;317729;-91
2023/03/19 05:12:15;;;;;;;54.57;31.87;;;;;;;;;;4406798;32;317709;-89
2023/03/19 05:14:42;;;;;;;58.63;35.77;;;;;;;;;;4419425;32;317495;-90
2023/03/19 05:17:10;;;;;;;71.77;36.20;;;;;;;;;;4418657;32;318889;-90
2023/03/19 05:19:39;;;;;;;56.90;37.40;;;;;;;;;;4410261;32;318509;-90
2023/03/19 05:22:05;;;;;;;63.17;35.97;;;;;;;;;;4420563;32;318474;-91
2023/03/19 05:24:32;;;;;;;67.53;38.63;;;;;;;;;;4409906;32;317846;-90
2023/03/19 05:26:59;;;;;;;69.37;41.70;;;;;;;;;;4418304;32;318384;-90
2023/03/19 05:29:26;;;;;;;76.03;41.27;;;;;;;;;;4408528;32;336553;-90
2023/03/19 05:31:53;;;;;;;70.70;41.40;;;;;;;;;;4418716;32;317728;-90
2023/03/19 05:34:20;;;;;;;84.77;49.20;;;;;;;;;;4410937;32;318048;-91
2023/03/19 05:36:49;;;;;;;94.83;53.03;;;;;;;;;;4421581;32;318483;-90
2023/03/19 05:39:16;;;;;;;96.23;53.53;;;;;;;;;;4413337;32;318128;-89
2023/03/19 05:41:42;;;;;;;91.30;52.70;;;;;;;;;;4421393;32;318503;-90
2023/03/19 05:44:09;;;;;;;82.30;52.00;;;;;;;;;;4420785;32;318620;-90
2023/03/19 05:46:36;;;;;;;94.30;51.20;;;;;;;;;;4410661;32;317503;-90
2023/03/19 05:49:03;;;;;;;87.47;51.87;;;;;;;;;;4419612;32;317826;-90
2023/03/19 05:51:30;;;;;;;92.60;55.00;;;;;;;;;;4410096;32;317960;-90
2023/03/19 05:53:58;;;;;;;95.93;55.67;;;;;;;;;;4419629;32;318389;-90
2023/03/19 05:56:25;;;;;;;101.90;56.03;;;;;;;;;;4409571;32;318148;-90
2023/03/19 05:58:52;;;;;;;92.13;54.77;;;;;;;;;;4422466;32;318578;-90
2023/03/19 06:01:19;;;;;;;95.07;55.13;;;;;;;;;;4412900;32;317530;-90
2023/03/19 06:03:46;;;;;;;76.43;42.40;;;;;;;;;;4421738;32;318520;-90
2023/03/19 06:06:13;;;;;;;62.77;37.00;;;;;;;;;;4422779;32;318519;-90
2023/03/19 06:08:42;;;;;;;62.87;38.00;;;;;;;;;;4409389;32;417369;-90
2023/03/19 06:11:11;;;;;;;80.43;43.43;;;;;;;;;;4422223;32;317341;-89
2023/03/19 06:13:38;;;;;;;87.67;48.87;;;;;;;;;;4413270;32;318426;-90
2023/03/19 06:16:05;;;;;;;70.70;44.10;;;;;;;;;;4423824;32;317366;-90
2023/03/19 06:18:32;;;;;;;71.03;43.43;;;;;;;;;;4412412;32;318692;-90
2023/03/19 06:20:59;;;;;;;89.23;47.90;;;;;;;;;;4422032;32;318329;-90
2023/03/19 06:23:26;;;;;;;99.37;57.03;;;;;;;;;;4412182;32;318411;-90
2023/03/19 06:25:53;;;;;;;88.33;50.63;;;;;;;;;;4422186;32;318431;-90
2023/03/19 06:28:21;;;;;;;82.63;48.57;;;;;;;;;;4411495;32;318389;-90
2023/03/19 06:30:47;;;;;;;74.67;46.30;;;;;;;;;;4422127;32;318342;-90
2023/03/19 06:33:14;;;;;;;76.77;43.60;;;;;;;;;;4411993;32;317612;-90
2023/03/19 06:35:41;;;;;;;69.83;42.30;;;;;;;;;;4422045;32;318327;-91
2023/03/19 06:38:08;;;;;;;67.00;41.87;;;;;;;;;;4420681;32;317998;-90
2023/03/19 06:40:35;;;;;;;66.57;37.60;;;;;;;;;;4410560;32;340779;-90
2023/03/19 06:43:02;;;;;;;72.77;41.03;;;;;;;;;;4422543;32;318179;-91
2023/03/19 06:45:30;;;;;;;81.20;45.10;;;;;;;;;;4412158;32;318151;-90
2023/03/19 06:47:57;;;;;;;75.30;43.33;;;;;;;;;;4421657;32;317464;-90
2023/03/19 06:50:23;;;;;;;72.90;45.07;;;;;;;;;;4412194;32;318321;-90
2023/03/19 06:52:50;;;;;;;63.30;37.27;;;;;;;;;;4421214;32;318680;-90
2023/03/19 06:55:19;;;;;;;77.00;41.80;;;;;;;;;;4410929;32;318419;-90
2023/03/19 06:57:49;;;;;;;68.87;38.90;;;;;;;;;;4421825;32;317905;-90
2023/03/19 07:00:17;;;;;;;61.03;35.13;;;;;;;;;;4403870;32;349720;-87
2023/03/19 07:02:45;;;;;;;69.20;36.83;;;;;;;;;;4408194;32;318347;-90
2023/03/19 07:05:13;;;;;;;63.13;35.70;;;;;;;;;;4407621;32;317837;-91
2023/03/19 07:07:40;;;;;;;55.53;32.53;;;;;;;;;;4401657;32;417280;-91
2023/03/19 07:10:07;;;;;;;57.50;33.90;;;;;;;;;;4420924;32;318137;-91
2023/03/19 07:12:34;;;;;;;55.13;32.17;;;;;;;;;;4410777;32;318125;-90
2023/03/19 07:15:01;;;;;;;53.40;30.67;;;;;;;;;;4421830;32;344993;-91
2023/03/19 07:17:28;;;;;;;49.57;31.00;;;;;;;;;;4412927;32;317895;-91
2023/03/19 07:19:56;;;;;;;62.33;35.17;;;;;;;;;;4421853;32;317465;-90
2023/03/19 07:22:23;;;;;;;58.87;33.27;;;;;;;;;;4411901;32;318266;-90
2023/03/19 07:24:50;;;;;;;51.03;31.83;;;;;;;;;;4422677;32;317848;-90
2023/03/19 07:27:17;;;;;;;57.07;30.43;;;;;;;;;;4411947;32;317454;-90
2023/03/19 07:29:44;;;;;;;48.87;30.00;;;;;;;;;;4424190;32;318221;-90
2023/03/19 07:32:11;;;;;;;49.87;31.07;;;;;;;;;;4423443;32;318155;-90
2023/03/19 07:34:38;;;;;;;54.20;30.10;;;;;;;;;;4412564;32;318016;-90
2023/03/19 07:37:09;;;;;;;51.57;29.17;;;;;;;;;;4421571;32;316174;-90
2023/03/19 07:39:36;;;;;;;49.70;30.40;;;;;;;;;;4410193;32;317765;-91
2023/03/19 07:42:03;;;;;;;55.77;28.50;;;;;;;;;;4421061;32;317602;-91
2023/03/19 07:45:01;;;;;;;45.33;26.70;;;;;;;;;;4410262;32;318311;-91
2023/03/19 07:47:28;;;;;;;38.93;24.13;;;;;;;;;;4411270;32;317458;-91
2023/03/19 07:49:55;;;;;;;38.13;20.67;;;;;;;;;;4421593;32;317284;-91
2023/03/19 07:52:23;;;;;;;30.83;17.90;;;;;;;;;;4411470;32;317555;-90
2023/03/19 07:54:51;;;;;;;25.30;15.93;;;;;;;;;;4420686;32;318254;-91
2023/03/19 07:57:18;;;;;;;26.80;14.57;;;;;;;;;;4412207;32;318230;-90
2023/03/19 07:59:45;;;;;;;28.13;14.03;;;;;;;;;;4422452;32;317432;-90
2023/03/19 08:02:12;;;;;;;21.60;14.57;;;;;;;;;;4421219;32;317533;-91
2023/03/19 08:04:40;;;;;;;20.27;12.30;;;;;;;;;;4407063;32;419864;-90
2023/03/19 08:07:09;;;;;;;20.37;13.47;;;;;;;;;;4421380;32;318226;-90
2023/03/19 08:09:38;;;;;;;29.90;16.10;;;;;;;;;;4409922;32;318179;-91
2023/03/19 08:12:06;;;;;;;20.83;12.73;;;;;;;;;;4420438;32;317939;-91
2023/03/19 08:14:33;;;;;;;21.67;12.60;;;;;;;;;;4409683;32;317815;-92
2023/03/19 08:17:00;;;;;;;24.50;12.10;;;;;;;;;;4422079;32;317733;-90
2023/03/19 08:19:27;;;;;;;20.23;11.20;;;;;;;;;;4411624;32;318096;-91
2023/03/19 08:21:54;;;;;;;17.00;12.03;;;;;;;;;;4420994;32;317636;-91
2023/03/19 08:24:20;;;;;;;17.10;10.93;;;;;;;;;;4410340;32;318204;-90
2023/03/19 08:26:50;;;;;;;16.77;9.67;;;;;;;;;;4419992;32;318252;-91
2023/03/19 08:29:17;;;;;;;16.33;9.70;;;;;;;;;;4410600;32;316575;-91
2023/03/19 08:31:47;;;;;;;16.17;9.57;;;;;;;;;;4420981;32;316507;-90
2023/03/19 08:34:14;;;;;;;16.57;9.93;;;;;;;;;;4411020;32;317166;-87
2023/03/19 08:36:41;;;;;;;22.03;10.87;;;;;;;;;;4419212;32;336860;-91
2023/03/19 08:39:08;;;;;;;20.07;9.20;;;;;;;;;;4421692;32;318691;-91
2023/03/19 08:41:35;;;;;;;22.00;10.43;;;;;;;;;;4411030;32;317166;-92
2023/03/19 08:44:03;;;;;;;18.10;10.33;;;;;;;;;;4420981;32;317606;-91
2023/03/19 08:46:31;;;;;;;12.40;8.43;;;;;;;;;;4409135;32;318538;-92
2023/03/19 08:48:57;;;;;;;12.17;7.83;;;;;;;;;;4420674;32;317811;-89
2023/03/19 08:51:25;;;;;;;10.93;6.67;;;;;;;;;;4409286;32;318233;-90
2023/03/19 08:53:52;;;;;;;10.57;6.47;;;;;;;;;;4420683;32;317473;-89
2023/03/19 08:56:19;;;;;;;9.33;6.80;;;;;;;;;;4410077;32;318144;-92
2023/03/19 08:58:46;;;;;;;14.97;6.20;;;;;;;;;;4420234;32;316646;-90
2023/03/19 09:01:14;;;;;;;12.87;7.17;;;;;;;;;;4420621;32;318465;-91
2023/03/19 09:03:43;;;;;;;12.20;6.60;;;;;;;;;;4405865;32;416985;-90
2023/03/19 09:06:13;;;;;;;10.83;6.23;;;;;;;;;;4419040;32;317535;-93
2023/03/19 09:08:40;;;;;;;10.87;6.80;;;;;;;;;;4407524;32;417112;-90
2023/03/19 09:11:07;;;;;;;15.20;6.93;;;;;;;;;;4420146;32;318160;-90
2023/03/19 09:13:37;;;;;;;10.53;6.90;;;;;;;;;;4410362;32;318232;-93
2023/03/19 09:16:05;;;;;;;15.00;8.33;;;;;;;;;;4420819;32;317686;-90
2023/03/19 09:18:34;;;;;;;13.17;8.70;;;;;;;;;;4410225;32;317555;-92
2023/03/19 09:21:01;;;;;;;10.80;7.20;;;;;;;;;;4422928;32;318119;-93
2023/03/19 09:23:28;;;;;;;14.43;8.33;;;;;;;;;;4413666;32;317384;-93
2023/03/19 09:25:55;;;;;;;14.87;8.70;;;;;;;;;;4423429;32;317412;-90
2023/03/19 09:28:22;;;;;;;13.00;8.37;;;;;;;;;;4411199;32;317746;-92
2023/03/19 09:30:50;;;;;;;13.87;8.60;;;;;;;;;;4420888;32;317967;-92
2023/03/19 09:33:18;;;;;;;19.60;9.50;;;;;;;;;;4410860;32;317233;-91
2023/03/19 09:35:51;;;;;;;12.03;8.13;;;;;;;;;;4421622;32;317227;-90
2023/03/19 09:38:19;;;;;;;13.30;6.07;;;;;;;;;;4402342;32;370643;-93
2023/03/19 09:40:48;;;;;;;10.13;6.73;;;;;;;;;;4408661;32;317531;-92
2023/03/19 09:43:36;;;;;;;10.07;7.67;;;;;;;;;;4411712;32;317948;-88
2023/03/19 09:46:06;;;;;;;11.03;6.43;;;;;;;;;;4420695;32;318564;-93
2023/03/19 09:48:39;;;;;;;14.10;7.60;;;;;;;;;;4411440;32;318031;-93
2023/03/19 09:51:14;;;;;;;12.27;5.80;;;;;;;;;;4420519;32;318103;-93
2023/03/19 09:53:49;;;;;;;11.80;7.37;;;;;;;;;;4407756;32;416967;-92
2023/03/19 09:56:18;;;;;;;8.87;5.90;;;;;;;;;;4410957;32;317659;-92
2023/03/19 09:58:45;;;;;;;9.47;6.50;;;;;;;;;;4420587;32;317173;-92
2023/03/19 10:01:24;;;;;;;8.97;6.07;;;;;;;;;;4421469;32;317024;-93
2023/03/19 10:04:07;;;;;;;12.43;7.27;;;;;;;;;;4410055;32;419035;-93
2023/03/19 10:06:38;;;;;;;12.13;6.70;;;;;;;;;;4409840;32;317733;-92
2023/03/19 10:09:31;;;;;;;12.23;7.50;;;;;;;;;;4420847;32;317870;-92
2023/03/19 10:12:16;;;;;;;9.20;5.03;;;;;;;;;;4406249;32;416224;-93
2023/03/19 10:14:59;;;;;;;9.00;5.40;;;;;;;;;;4407564;32;417354;-92
2023/03/19 10:17:31;;;;;;;9.47;5.40;;;;;;;;;;4409115;32;317158;-90
2023/03/19 10:20:03;;;;;;;7.90;4.83;;;;;;;;;;4420094;32;316540;-90
2023/03/19 10:22:37;;;;;;;15.10;4.90;;;;;;;;;;4408857;32;317672;-90
2023/03/19 10:25:05;;;;;;;14.90;6.47;;;;;;;;;;4418710;32;318136;-90
2023/03/19 10:27:35;;;;;;;6.70;4.33;;;;;;;;;;4408316;32;318247;-90
2023/03/19 10:30:02;;;;;;;6.77;4.97;;;;;;;;;;4419350;32;317410;-92
2023/03/19 10:32:38;;;;;;;6.23;3.97;;;;;;;;;;4409652;32;317514;-90
2023/03/19 10:35:09;;;;;;;6.70;5.07;;;;;;;;;;4418745;32;316515;-90
2023/03/19 10:37:38;;;;;;;10.77;4.90;;;;;;;;;;4408316;32;317153;-92
2023/03/19 10:40:21;;;;;;;6.97;4.63;;;;;;;;;;4419737;32;318315;-90
2023/03/19 10:43:02;;;;;;;6.83;4.43;;;;;;;;;;4407441;32;416297;-91
2023/03/19 10:45:33;;;;;;;9.87;5.77;;;;;;;;;;4410151;32;317332;-91
2023/03/19 10:48:02;;;;;;;6.97;4.90;;;;;;;;;;4420791;32;327097;-90
2023/03/19 10:50:31;;;;;;;11.67;6.30;;;;;;;;;;4413972;32;317045;-89
2023/03/19 10:53:07;;;;;;;18.60;10.93;;;;;;;;;;4427605;32;321879;-90
2023/03/19 10:55:34;;;;;;;10.03;6.93;;;;;;;;;;4418213;32;318439;-90
2023/03/19 10:58:04;;;;;;;8.57;6.27;;;;;;;;;;4423603;32;317389;-90
2023/03/19 11:00:34;;;;;;;12.43;7.33;;;;;;;;;;4412556;32;317068;-91
2023/03/19 11:03:04;;;;;;;15.10;9.07;;;;;;;;;;4422844;32;318124;-90
2023/03/19 11:05:32;;;;;;;24.23;15.03;;;;;;;;;;4411015;32;318771;-92
2023/03/19 11:08:02;;;;;;;13.83;10.00;;;;;;;;;;4422756;32;318259;-92
2023/03/19 11:10:33;;;;;;;10.80;7.17;;;;;;;;;;4416891;32;318839;-91
2023/03/19 11:13:04;;;;;;;15.90;8.40;;;;;;;;;;4424697;32;317385;-92
2023/03/19 11:15:36;;;;;;;12.30;6.60;;;;;;;;;;4414427;32;318365;-90
2023/03/19 11:18:09;;;;;;;10.97;7.03;;;;;;;;;;4423462;32;317765;-90
2023/03/19 11:20:37;;;;;;;16.20;9.60;;;;;;;;;;4411992;32;318598;-90
2023/03/19 11:23:12;;;;;;;16.17;9.70;;;;;;;;;;4423152;32;317565;-92
2023/03/19 11:25:42;;;;;;;14.83;7.33;;;;;;;;;;4408909;32;417010;-91
2023/03/19 11:28:12;;;;;;;7.43;4.93;;;;;;;;;;4421429;32;317557;-91
2023/03/19 11:30:46;;;;;;;22.80;12.30;;;;;;;;;;4410223;32;380175;-90
2023/03/19 11:33:52;;;;;;;23.97;12.43;;;;;;;;;;4422730;32;319066;-93
2023/03/19 11:36:26;;;;;;;10.70;6.90;;;;;;;;;;4411644;32;417578;-91
2023/03/19 11:39:18;;;;;;;12.43;5.07;;;;;;;;;;4422614;32;317412;-91
2023/03/19 11:42:05;;;;;;;15.25;6.50;;;;;;;;;;4409710;32;416701;-90
2023/03/19 11:44:39;;;;;;;27.62;11.48;;;;;;;;;;4421637;32;316328;-90
2023/03/19 11:47:11;;;;;;;17.87;9.82;;;;;;;;;;4428290;32;318970;-90
2023/03/19 11:49:52;;;;;;;9.85;6.80;;;;;;;;;;4412837;32;355694;-90
2023/03/19 11:52:25;;;;;;;9.88;5.72;;;;;;;;;;4418793;32;316265;-90
2023/03/19 11:55:11;;;;;;;7.80;4.85;;;;;;;;;;4434167;32;316044;-90
2023/03/19 11:58:00;;;;;;;5.57;3.70;;;;;;;;;;4424851;32;316216;-91
2023/03/19 12:00:35;;;;;;;13.77;7.00;;;;;;;;;;4423161;32;315529;-90
2023/03/19 12:03:40;;;;;;;13.13;7.35;;;;;;;;;;4433763;32;318127;-90
2023/03/19 12:06:17;;;;;;;12.50;7.53;;;;;;;;;;4398109;32;417439;-89
2023/03/19 12:08:50;;;;;;;14.37;7.97;;;;;;;;;;4419974;32;416654;-90
2023/03/19 12:11:24;;;;;;;10.43;5.72;;;;;;;;;;4420746;32;317641;-89
2023/03/19 12:14:17;;;;;;;11.80;5.50;;;;;;;;;;4430231;32;316912;-91
2023/03/19 12:17:05;;;;;;;7.00;4.43;;;;;;;;;;4419144;32;417341;-90
2023/03/19 12:19:57;;;;;;;9.07;5.80;;;;;;;;;;4422414;32;315148;-90
2023/03/19 12:22:39;;;;;;;9.90;6.05;;;;;;;;;;4422379;32;316607;-92
2023/03/19 12:25:24;;;;;;;10.32;6.87;;;;;;;;;;4432342;32;315212;-89
2023/03/19 12:27:55;;;;;;;10.85;3.95;;;;;;;;;;4420506;32;403195;-89
2023/03/19 12:30:34;;;;;;;7.57;4.30;;;;;;;;;;4423104;32;316401;-90
2023/03/19 12:33:14;;;;;;;10.45;6.30;;;;;;;;;;4433367;32;316202;-90
2023/03/19 12:35:46;;;;;;;6.93;4.85;;;;;;;;;;4417747;32;417859;-92
2023/03/19 12:38:18;;;;;;;9.50;5.03;;;;;;;;;;4430703;32;315189;-89
2023/03/19 12:40:50;;;;;;;8.85;4.05;;;;;;;;;;4416375;32;417892;-92
2023/03/19 12:43:26;;;;;;;6.97;4.68;;;;;;;;;;4411696;32;316505;-89
2023/03/19 12:45:58;;;;;;;8.85;4.22;;;;;;;;;;4420978;32;316570;-90
2023/03/19 12:48:28;;;;;;;7.62;4.28;;;;;;;;;;4411620;32;316857;-90
2023/03/19 12:50:59;;;;;;;7.35;4.53;;;;;;;;;;4427716;32;315170;-90
2023/03/19 12:53:35;;;;;;;8.52;5.18;;;;;;;;;;4419503;32;316330;-89
2023/03/19 12:56:08;;;;;;;5.95;4.12;;;;;;;;;;4424866;32;316209;-91
2023/03/19 12:58:43;;;;;;;8.20;3.78;;;;;;;;;;4409304;32;316600;-91
2023/03/19 13:01:17;;;;;;;6.50;4.25;;;;;;;;;;4419886;32;316817;-90
2023/03/19 13:03:54;;;;;;;7.45;4.37;;;;;;;;;;4415566;32;419602;-91
2023/03/19 13:06:27;;;;;;;5.95;4.03;;;;;;;;;;4411063;32;316556;-91
2023/03/19 13:09:02;;;;;;;7.70;4.43;;;;;;;;;;4419069;32;316471;-92
2023/03/19 13:11:39;;;;;;;9.13;4.07;;;;;;;;;;4410601;32;316439;-92
2023/03/19 13:14:16;;;;;;;7.85;4.90;;;;;;;;;;4422303;32;317173;-90
2023/03/19 13:16:50;;;;;;;9.48;4.70;;;;;;;;;;4407776;32;417321;-90
2023/03/19 13:19:24;;;;;;;14.32;5.07;;;;;;;;;;4410681;32;316596;-93
2023/03/19 13:21:55;;;;;;;8.88;3.87;;;;;;;;;;4422111;32;317468;-89
2023/03/19 13:24:26;;;;;;;8.03;4.03;;;;;;;;;;4411063;32;355756;-88
2023/03/19 13:26:54;;;;;;;7.97;4.72;;;;;;;;;;4428491;32;316185;-91
2023/03/19 13:29:23;;;;;;;7.75;4.62;;;;;;;;;;4419391;32;317601;-93
2023/03/19 13:31:52;;;;;;;11.27;4.40;;;;;;;;;;4429927;32;317459;-95
2023/03/19 13:34:24;;;;;;;8.90;4.07;;;;;;;;;;4419760;32;317563;-90
2023/03/19 13:36:55;;;;;;;7.30;4.40;;;;;;;;;;4424222;32;316632;-90
2023/03/19 13:39:26;;;;;;;10.82;6.47;;;;;;;;;;4409943;32;317780;-93
2023/03/19 13:42:07;;;;;;;6.43;4.05;;;;;;;;;;4421436;32;317525;-93
2023/03/19 13:44:39;;;;;;;9.00;4.37;;;;;;;;;;4409634;32;349698;-93
2023/03/19 13:47:43;;;;;;;9.50;4.57;;;;;;;;;;4418954;32;316637;-91
2023/03/19 13:50:27;;;;;;;8.63;4.47;;;;;;;;;;4417538;32;416872;-92
2023/03/19 13:53:13;;;;;;;13.48;5.10;;;;;;;;;;4407830;32;415559;-91
2023/03/19 13:55:52;;;;;;;10.30;6.75;;;;;;;;;;4407237;32;416297;-88
2023/03/19 14:01:05;;;;;;;19.62;12.07;;;;;;;;;;4405797;32;317543;-90
2023/03/19 14:03:35;;;;;;;6.43;4.95;;;;;;;;;;4408163;32;319358;-90
2023/03/19 14:06:03;;;;;;;4.85;3.53;;;;;;;;;;4419687;32;317149;-88
2023/03/19 14:08:33;;;;;;;6.87;3.97;;;;;;;;;;4408335;32;319565;-89
2023/03/19 14:11:02;;;;;;;5.00;3.75;;;;;;;;;;4419594;32;316985;-87
2023/03/19 14:13:35;;;;;;;6.60;4.22;;;;;;;;;;4408362;32;317073;-89
2023/03/19 14:16:08;;;;;;;10.93;3.90;;;;;;;;;;4418909;32;316604;-89
2023/03/19 14:18:41;;;;;;;9.60;5.32;;;;;;;;;;4409318;32;345319;-88
2023/03/19 14:21:11;;;;;;;18.42;8.73;;;;;;;;;;4421575;32;317197;-88
2023/03/19 14:23:42;;;;;;;4.75;3.83;;;;;;;;;;4411714;32;318102;-89
2023/03/19 14:26:17;;;;;;;10.90;5.07;;;;;;;;;;4421441;32;317291;-88
2023/03/19 14:28:54;;;;;;;10.02;5.00;;;;;;;;;;4408404;32;416533;-90
2023/03/19 14:31:31;;;;;;;14.98;6.55;;;;;;;;;;4412306;32;318572;-90